createdAt,value
2017-08-05T00:00:44.682Z,0
2017-08-05T00:01:45.028Z,0
2017-08-05T00:02:44.365Z,0
2017-08-05T00:03:45.216Z,0
2017-08-05T00:04:46.237Z,0
2017-08-05T00:05:45.837Z,0
2017-08-05T00:06:44.670Z,0
2017-08-05T00:07:44.663Z,0
2017-08-05T00:08:45.745Z,0
2017-08-05T00:09:44.646Z,0
2017-08-05T00:10:44.964Z,0
2017-08-05T00:11:44.320Z,0
2017-08-05T00:12:44.970Z,0
2017-08-05T00:13:45.213Z,0
2017-08-05T00:14:44.944Z,0
2017-08-05T00:15:44.966Z,0
2017-08-05T00:16:44.657Z,0
2017-08-05T00:17:45.704Z,0
2017-08-05T00:18:45.468Z,0
2017-08-05T00:19:44.284Z,0
2017-08-05T00:20:44.614Z,0
2017-08-05T00:21:44.920Z,0
2017-08-05T00:22:45.696Z,0
2017-08-05T00:23:44.255Z,0
2017-08-05T00:24:44.922Z,0
2017-08-05T00:25:44.734Z,0
2017-08-05T00:26:45.913Z,0
2017-08-05T00:27:45.232Z,0
2017-08-05T00:28:44.593Z,0
2017-08-05T00:29:44.909Z,0
2017-08-05T00:30:45.134Z,0
2017-08-05T00:31:45.568Z,0
2017-08-05T00:32:44.879Z,0
2017-08-05T00:33:44.789Z,0
2017-08-05T00:34:44.876Z,0
2017-08-05T00:35:44.610Z,0
2017-08-05T00:36:44.540Z,0
2017-08-05T00:37:46.255Z,0
2017-08-05T00:38:44.672Z,0
2017-08-05T00:39:44.260Z,0
2017-08-05T00:40:44.550Z,0
2017-08-05T00:41:44.515Z,0
2017-08-05T00:42:44.525Z,0
2017-08-05T00:43:45.944Z,0
2017-08-05T00:44:45.776Z,0
2017-08-05T00:45:44.842Z,0
2017-08-05T00:46:44.515Z,0
2017-08-05T00:47:44.497Z,0
2017-08-05T00:48:44.816Z,0
2017-08-05T00:49:44.925Z,0
2017-08-05T00:50:44.820Z,0
2017-08-05T00:51:45.522Z,0
2017-08-05T00:52:44.614Z,0
2017-08-05T00:53:44.170Z,0
2017-08-05T00:54:44.939Z,0
2017-08-05T00:55:44.460Z,0
2017-08-05T00:56:45.668Z,0
2017-08-05T00:57:44.458Z,0
2017-08-05T00:58:44.822Z,0
2017-08-05T00:59:44.572Z,0
2017-08-05T01:00:44.774Z,0
2017-08-05T01:01:44.783Z,0
2017-08-05T01:02:44.754Z,0
2017-08-05T01:03:44.848Z,0
2017-08-05T01:04:44.748Z,0
2017-08-05T01:05:44.710Z,0
2017-08-05T01:06:44.419Z,0
2017-08-05T01:07:44.091Z,0
2017-08-05T01:08:44.744Z,0
2017-08-05T01:09:44.399Z,0
2017-08-05T01:10:45.509Z,0
2017-08-05T01:11:45.135Z,0
2017-08-05T01:12:44.708Z,0
2017-08-05T01:13:44.711Z,0
2017-08-05T01:14:44.399Z,0
2017-08-05T01:15:44.881Z,0
2017-08-05T01:16:44.368Z,0
2017-08-05T01:17:44.076Z,0
2017-08-05T01:18:44.706Z,0
2017-08-05T01:19:45.278Z,0
2017-08-05T01:20:45.363Z,0
2017-08-05T01:21:44.385Z,0
2017-08-05T01:22:44.667Z,0
2017-08-05T01:23:44.681Z,0
2017-08-05T01:24:45.845Z,0
2017-08-05T01:25:45.386Z,0
2017-08-05T01:26:44.661Z,0
2017-08-05T01:27:44.374Z,0
2017-08-05T01:28:44.337Z,0
2017-08-05T01:29:44.317Z,0
2017-08-05T01:30:44.312Z,0
2017-08-05T01:31:44.401Z,0
2017-08-05T01:32:45.463Z,0
2017-08-05T01:33:44.321Z,0
2017-08-05T01:34:44.321Z,0
2017-08-05T01:35:43.998Z,0
2017-08-05T01:36:44.626Z,0
2017-08-05T01:37:45.461Z,0
2017-08-05T01:38:45.491Z,0
2017-08-05T01:39:43.950Z,0
2017-08-05T01:40:44.372Z,0
2017-08-05T01:41:44.265Z,0
2017-08-05T01:42:44.273Z,0
2017-08-05T01:43:44.282Z,0
2017-08-05T01:44:45.105Z,0
2017-08-05T01:45:44.572Z,0
2017-08-05T01:46:44.577Z,0
2017-08-05T01:47:44.560Z,0
2017-08-05T01:48:45.836Z,0
2017-08-05T01:49:43.907Z,0
2017-08-05T01:50:44.898Z,0
2017-08-05T01:51:44.218Z,0
2017-08-05T01:52:44.235Z,0
2017-08-05T01:53:44.230Z,0
2017-08-05T01:54:45.502Z,0
2017-08-05T01:55:45.244Z,0
2017-08-05T01:56:44.198Z,0
2017-08-05T01:57:44.217Z,0
2017-08-05T01:58:44.213Z,0
2017-08-05T01:59:44.329Z,0
2017-08-05T02:00:44.552Z,0
2017-08-05T02:01:45.114Z,0
2017-08-05T02:02:45.372Z,0
2017-08-05T02:03:44.343Z,0
2017-08-05T02:04:44.162Z,0
2017-08-05T02:05:44.177Z,0
2017-08-05T02:06:44.475Z,0
2017-08-05T02:07:45.365Z,0
2017-08-05T02:08:44.696Z,0
2017-08-05T02:09:44.329Z,0
2017-08-05T02:10:43.813Z,0
2017-08-05T02:11:44.469Z,0
2017-08-05T02:12:44.445Z,0
2017-08-05T02:13:44.119Z,0
2017-08-05T02:14:44.436Z,0
2017-08-05T02:15:44.426Z,0
2017-08-05T02:16:44.113Z,0
2017-08-05T02:17:44.106Z,0
2017-08-05T02:18:43.798Z,0
2017-08-05T02:19:44.110Z,0
2017-08-05T02:20:44.086Z,0
2017-08-05T02:21:44.094Z,0
2017-08-05T02:22:44.095Z,0
2017-08-05T02:23:44.092Z,0
2017-08-05T02:24:44.074Z,0
2017-08-05T02:25:44.060Z,0
2017-08-05T02:26:44.425Z,0
2017-08-05T02:27:44.249Z,0
2017-08-05T02:28:44.048Z,0
2017-08-05T02:29:44.045Z,0
2017-08-05T02:30:44.371Z,0
2017-08-05T02:31:44.053Z,0
2017-08-05T02:32:44.030Z,0
2017-08-05T02:33:44.047Z,0
2017-08-05T02:34:44.366Z,0
2017-08-05T02:35:44.334Z,0
2017-08-05T02:36:44.342Z,0
2017-08-05T02:37:44.015Z,0
2017-08-05T02:38:44.007Z,0
2017-08-05T02:39:44.320Z,0
2017-08-05T02:40:44.016Z,0
2017-08-05T02:41:44.002Z,0
2017-08-05T02:42:44.333Z,0
2017-08-05T02:43:43.674Z,0
2017-08-05T02:44:43.973Z,0
2017-08-05T02:45:43.968Z,0
2017-08-05T02:46:43.971Z,0
2017-08-05T02:47:43.955Z,0
2017-08-05T02:48:43.963Z,0
2017-08-05T02:49:44.270Z,0
2017-08-05T02:50:43.966Z,0
2017-08-05T02:51:43.953Z,0
2017-08-05T02:52:43.933Z,0
2017-08-05T02:53:43.623Z,0
2017-08-05T02:54:44.248Z,0
2017-08-05T02:55:44.261Z,0
2017-08-05T02:56:43.912Z,0
2017-08-05T02:57:44.266Z,0
2017-08-05T02:58:44.221Z,0
2017-08-05T02:59:44.237Z,0
2017-08-05T03:00:43.908Z,0
2017-08-05T03:01:44.229Z,0
2017-08-05T03:02:43.566Z,0
2017-08-05T03:03:43.878Z,0
2017-08-05T03:04:43.897Z,0
2017-08-05T03:05:43.884Z,0
2017-08-05T03:06:44.220Z,4
2017-08-05T03:07:43.874Z,4
2017-08-05T03:08:44.206Z,0
2017-08-05T03:09:44.179Z,4
2017-08-05T03:10:44.166Z,4
2017-08-05T03:11:44.160Z,4
2017-08-05T03:12:43.833Z,4
2017-08-05T03:13:43.830Z,4
2017-08-05T03:14:44.168Z,8
2017-08-05T03:15:44.521Z,8
2017-08-05T03:16:43.812Z,8
2017-08-05T03:17:43.497Z,8
2017-08-05T03:18:44.123Z,12
2017-08-05T03:19:44.151Z,12
2017-08-05T03:20:43.796Z,12
2017-08-05T03:21:43.794Z,16
2017-08-05T03:22:44.127Z,20
2017-08-05T03:23:43.799Z,24
2017-08-05T03:24:43.798Z,24
2017-08-05T03:25:44.095Z,32
2017-08-05T03:26:44.091Z,36
2017-08-05T03:27:44.100Z,40
2017-08-05T03:28:43.768Z,44
2017-08-05T03:29:43.429Z,52
2017-08-05T03:30:43.432Z,60
2017-08-05T03:31:43.737Z,64
2017-08-05T03:32:44.089Z,76
2017-08-05T03:33:43.750Z,84
2017-08-05T03:34:44.044Z,88
2017-08-05T03:35:43.721Z,104
2017-08-05T03:36:44.059Z,116
2017-08-05T03:37:44.042Z,124
2017-08-05T03:38:43.716Z,140
2017-08-05T03:39:43.756Z,148
2017-08-05T03:40:44.036Z,164
2017-08-05T03:41:44.008Z,176
2017-08-05T03:42:43.678Z,192
2017-08-05T03:43:44.012Z,208
2017-08-05T03:44:44.013Z,224
2017-08-05T03:45:43.362Z,244
2017-08-05T03:46:43.366Z,264
2017-08-05T03:47:43.668Z,280
2017-08-05T03:48:44.004Z,300
2017-08-05T03:49:43.332Z,324
2017-08-05T03:50:43.966Z,344
2017-08-05T03:51:43.332Z,368
2017-08-05T03:52:43.974Z,392
2017-08-05T03:53:43.977Z,420
2017-08-05T03:54:43.326Z,440
2017-08-05T03:55:43.624Z,468
2017-08-05T03:56:43.283Z,492
2017-08-05T03:57:43.600Z,520
2017-08-05T03:58:43.279Z,548
2017-08-05T03:59:43.971Z,580
2017-08-05T04:00:43.921Z,604
2017-08-05T04:01:42.933Z,628
2017-08-05T04:02:43.898Z,656
2017-08-05T04:03:43.248Z,684
2017-08-05T04:04:43.622Z,712
2017-08-05T04:05:43.236Z,736
2017-08-05T04:06:43.573Z,764
2017-08-05T04:07:43.543Z,788
2017-08-05T04:08:43.220Z,816
2017-08-05T04:09:43.891Z,844
2017-08-05T04:10:43.284Z,868
2017-08-05T04:11:43.228Z,892
2017-08-05T04:12:43.196Z,920
2017-08-05T04:13:43.891Z,944
2017-08-05T04:14:43.826Z,968
2017-08-05T04:15:43.499Z,992
2017-08-05T04:16:43.859Z,1020
2017-08-05T04:17:43.496Z,1040
2017-08-05T04:18:43.516Z,1064
2017-08-05T04:19:43.479Z,1088
2017-08-05T04:20:43.810Z,1108
2017-08-05T04:21:43.827Z,1132
2017-08-05T04:22:43.786Z,1152
2017-08-05T04:23:43.791Z,1172
2017-08-05T04:24:43.486Z,1192
2017-08-05T04:25:43.125Z,1216
2017-08-05T04:26:43.137Z,1240
2017-08-05T04:27:43.452Z,1260
2017-08-05T04:28:43.128Z,1280
2017-08-05T04:29:43.784Z,1300
2017-08-05T04:30:43.096Z,1320
2017-08-05T04:31:43.419Z,1344
2017-08-05T04:32:43.409Z,1360
2017-08-05T04:33:43.427Z,1380
2017-08-05T04:34:43.441Z,1404
2017-08-05T04:35:43.399Z,1424
2017-08-05T04:36:43.066Z,1452
2017-08-05T04:37:43.697Z,1472
2017-08-05T04:38:43.414Z,1500
2017-08-05T04:39:43.066Z,1556
2017-08-05T04:40:43.398Z,1572
2017-08-05T04:41:43.700Z,1556
2017-08-05T04:42:43.033Z,1576
2017-08-05T04:43:43.683Z,1592
2017-08-05T04:44:43.365Z,1612
2017-08-05T04:45:43.338Z,1624
2017-08-05T04:46:43.349Z,1632
2017-08-05T04:47:43.003Z,1644
2017-08-05T04:48:43.013Z,1660
2017-08-05T04:49:43.733Z,1672
2017-08-05T04:50:43.635Z,1688
2017-08-05T04:51:43.630Z,1704
2017-08-05T04:52:43.643Z,1716
2017-08-05T04:53:43.303Z,1736
2017-08-05T04:54:43.289Z,1752
2017-08-05T04:55:43.611Z,1768
2017-08-05T04:56:43.602Z,1784
2017-08-05T04:57:43.593Z,1800
2017-08-05T04:58:43.607Z,1816
2017-08-05T04:59:43.583Z,1836
2017-08-05T05:00:42.938Z,1852
2017-08-05T05:01:43.274Z,1872
2017-08-05T05:02:43.277Z,1884
2017-08-05T05:03:43.566Z,1904
2017-08-05T05:04:43.244Z,1936
2017-08-05T05:05:43.253Z,2040
2017-08-05T05:06:42.903Z,2088
2017-08-05T05:07:43.252Z,2052
2017-08-05T05:08:43.224Z,1980
2017-08-05T05:09:42.890Z,1964
2017-08-05T05:10:42.888Z,1976
2017-08-05T05:11:42.879Z,1992
2017-08-05T05:12:43.210Z,2004
2017-08-05T05:13:43.191Z,2016
2017-08-05T05:14:43.200Z,2036
2017-08-05T05:15:43.199Z,2044
2017-08-05T05:16:43.514Z,2056
2017-08-05T05:17:42.531Z,2064
2017-08-05T05:18:43.167Z,2076
2017-08-05T05:19:42.846Z,2088
2017-08-05T05:20:43.169Z,2100
2017-08-05T05:21:43.171Z,2112
2017-08-05T05:22:42.844Z,2124
2017-08-05T05:23:43.161Z,2136
2017-08-05T05:24:43.141Z,2148
2017-08-05T05:25:42.818Z,2160
2017-08-05T05:26:43.176Z,2176
2017-08-05T05:27:43.125Z,2192
2017-08-05T05:28:43.128Z,2204
2017-08-05T05:29:43.438Z,2216
2017-08-05T05:30:43.124Z,2236
2017-08-05T05:31:42.470Z,2248
2017-08-05T05:32:43.446Z,2260
2017-08-05T05:33:43.095Z,2288
2017-08-05T05:34:43.423Z,2344
2017-08-05T05:35:43.425Z,2460
2017-08-05T05:36:43.082Z,2744
2017-08-05T05:37:43.143Z,3216
2017-08-05T05:38:43.083Z,3728
2017-08-05T05:39:43.132Z,4188
2017-08-05T05:40:43.137Z,4728
2017-08-05T05:41:43.087Z,4988
2017-08-05T05:42:43.398Z,5096
2017-08-05T05:43:43.375Z,4980
2017-08-05T05:44:43.390Z,4620
2017-08-05T05:45:43.383Z,4364
2017-08-05T05:46:43.043Z,3832
2017-08-05T05:47:43.046Z,3348
2017-08-05T05:48:43.355Z,3260
2017-08-05T05:49:43.417Z,3212
2017-08-05T05:50:42.729Z,3040
2017-08-05T05:51:43.030Z,2716
2017-08-05T05:52:42.716Z,2532
2017-08-05T05:53:43.334Z,2488
2017-08-05T05:54:42.698Z,2508
2017-08-05T05:55:43.331Z,2520
2017-08-05T05:56:43.009Z,2536
2017-08-05T05:57:42.685Z,2540
2017-08-05T05:58:43.373Z,2552
2017-08-05T05:59:43.011Z,2560
2017-08-05T06:00:42.994Z,2572
2017-08-05T06:01:43.021Z,2588
2017-08-05T06:02:43.312Z,2596
2017-08-05T06:03:43.009Z,2612
2017-08-05T06:04:43.001Z,2620
2017-08-05T06:05:42.977Z,2628
2017-08-05T06:06:42.966Z,2636
2017-08-05T06:07:42.994Z,2648
2017-08-05T06:08:43.005Z,2660
2017-08-05T06:09:43.334Z,2672
2017-08-05T06:10:42.966Z,2684
2017-08-05T06:11:43.294Z,2692
2017-08-05T06:12:43.287Z,2708
2017-08-05T06:13:42.631Z,2716
2017-08-05T06:14:42.943Z,2728
2017-08-05T06:15:42.942Z,2732
2017-08-05T06:16:42.934Z,2736
2017-08-05T06:17:42.616Z,2740
2017-08-05T06:18:42.929Z,2740
2017-08-05T06:19:42.600Z,2744
2017-08-05T06:20:43.296Z,2752
2017-08-05T06:21:43.253Z,2760
2017-08-05T06:22:43.236Z,2768
2017-08-05T06:23:42.920Z,2764
2017-08-05T06:24:42.907Z,2764
2017-08-05T06:25:43.244Z,2756
2017-08-05T06:26:42.902Z,2760
2017-08-05T06:27:43.227Z,2768
2017-08-05T06:28:43.220Z,2776
2017-08-05T06:29:43.212Z,2944
2017-08-05T06:30:43.212Z,3236
2017-08-05T06:31:43.213Z,2920
2017-08-05T06:32:42.882Z,2856
2017-08-05T06:33:42.910Z,2952
2017-08-05T06:34:43.245Z,3056
2017-08-05T06:35:42.876Z,3500
2017-08-05T06:36:42.560Z,4204
2017-08-05T06:37:42.883Z,5572
2017-08-05T06:38:42.863Z,5432
2017-08-05T06:39:42.934Z,7984
2017-08-05T06:40:42.556Z,13428
2017-08-05T06:41:42.856Z,17984
2017-08-05T06:42:42.871Z,17696
2017-08-05T06:43:42.851Z,13168
2017-08-05T06:44:42.550Z,16220
2017-08-05T06:45:43.187Z,16976
2017-08-05T06:46:43.163Z,19328
2017-08-05T06:47:42.841Z,26528
2017-08-05T06:48:42.855Z,23328
2017-08-05T06:49:42.849Z,23232
2017-08-05T06:50:43.175Z,22464
2017-08-05T06:51:43.381Z,19328
2017-08-05T06:52:42.829Z,30208
2017-08-05T06:53:42.853Z,40160
2017-08-05T06:54:42.833Z,35712
2017-08-05T06:55:43.192Z,36000
2017-08-05T06:56:42.854Z,40576
2017-08-05T06:57:42.505Z,43584
2017-08-05T06:58:42.516Z,45056
2017-08-05T06:59:43.167Z,47232
2017-08-05T07:00:42.846Z,47904
2017-08-05T07:01:42.831Z,46720
2017-08-05T07:02:43.173Z,47584
2017-08-05T07:03:42.825Z,47072
2017-08-05T07:04:43.152Z,45536
2017-08-05T07:05:42.840Z,42208
2017-08-05T07:06:42.835Z,40512
2017-08-05T07:07:42.868Z,42848
2017-08-05T07:08:42.873Z,44832
2017-08-05T07:09:42.844Z,44384
2017-08-05T07:10:42.851Z,48544
2017-08-05T07:11:42.843Z,53088
2017-08-05T07:12:42.535Z,55584
2017-08-05T07:13:43.170Z,53664
2017-08-05T07:14:42.851Z,45920
2017-08-05T07:15:42.553Z,45504
2017-08-05T07:16:42.882Z,51616
2017-08-05T07:17:43.204Z,53984
2017-08-05T07:18:43.187Z,51552
2017-08-05T07:19:43.206Z,49856
2017-08-05T07:20:42.881Z,46592
2017-08-05T07:21:42.559Z,44352
2017-08-05T07:22:42.953Z,48736
2017-08-05T07:23:42.569Z,53056
2017-08-05T07:24:42.584Z,52480
2017-08-05T07:25:42.593Z,50048
2017-08-05T07:26:42.591Z,51712
2017-08-05T07:27:43.236Z,55904
2017-08-05T07:28:42.917Z,56192
2017-08-05T07:29:42.922Z,53984
2017-08-05T07:30:42.956Z,55232
2017-08-05T07:31:42.626Z,56064
2017-08-05T07:32:42.632Z,53312
2017-08-05T07:33:42.654Z,49792
2017-08-05T07:34:42.981Z,41440
2017-08-05T07:35:43.285Z,19840
2017-08-05T07:36:42.966Z,6020
2017-08-05T07:37:42.979Z,5096
2017-08-05T07:38:42.666Z,4648
2017-08-05T07:39:43.312Z,4348
2017-08-05T07:40:42.684Z,4136
2017-08-05T07:41:43.009Z,3992
2017-08-05T07:42:44.430Z,3872
2017-08-05T07:43:43.334Z,3764
2017-08-05T07:44:42.721Z,3676
2017-08-05T07:45:43.025Z,3584
2017-08-05T07:46:42.716Z,3492
2017-08-05T07:47:43.048Z,3416
2017-08-05T07:48:43.063Z,3352
2017-08-05T07:49:42.750Z,3332
2017-08-05T07:50:43.080Z,3292
2017-08-05T07:51:43.387Z,3300
2017-08-05T07:52:43.440Z,3284
2017-08-05T07:53:42.759Z,3276
2017-08-05T07:54:43.088Z,3264
2017-08-05T07:55:43.413Z,3288
2017-08-05T07:56:43.423Z,3292
2017-08-05T07:57:43.110Z,3364
2017-08-05T07:58:44.244Z,4020
2017-08-05T07:59:43.150Z,5300
2017-08-05T08:00:43.439Z,6040
2017-08-05T08:01:43.451Z,5656
2017-08-05T08:02:42.814Z,4632
2017-08-05T08:03:42.826Z,4196
2017-08-05T08:04:42.848Z,4064
2017-08-05T08:05:43.145Z,4192
2017-08-05T08:06:43.155Z,4004
2017-08-05T08:07:42.854Z,3572
2017-08-05T08:08:43.501Z,3356
2017-08-05T08:09:43.202Z,3392
2017-08-05T08:10:43.194Z,3384
2017-08-05T08:11:43.177Z,3304
2017-08-05T08:12:43.181Z,3272
2017-08-05T08:13:42.870Z,3268
2017-08-05T08:14:43.545Z,3284
2017-08-05T08:15:43.239Z,3288
2017-08-05T08:16:43.196Z,3328
2017-08-05T08:17:43.206Z,3376
2017-08-05T08:18:42.559Z,3872
2017-08-05T08:19:43.208Z,4188
2017-08-05T08:20:43.530Z,4572
2017-08-05T08:21:43.217Z,5224
2017-08-05T08:22:43.546Z,5740
2017-08-05T08:23:43.216Z,6452
2017-08-05T08:24:43.561Z,5740
2017-08-05T08:25:43.219Z,5968
2017-08-05T08:26:43.250Z,5120
2017-08-05T08:27:43.561Z,5204
2017-08-05T08:28:43.275Z,4940
2017-08-05T08:29:43.257Z,4420
2017-08-05T08:30:43.579Z,4016
2017-08-05T08:31:42.920Z,3976
2017-08-05T08:32:42.961Z,4032
2017-08-05T08:33:43.247Z,4596
2017-08-05T08:34:43.577Z,5716
2017-08-05T08:35:43.254Z,6860
2017-08-05T08:36:43.260Z,7512
2017-08-05T08:37:43.306Z,6776
2017-08-05T08:38:43.296Z,5752
2017-08-05T08:39:43.602Z,5076
2017-08-05T08:40:43.268Z,4664
2017-08-05T08:41:43.598Z,5052
2017-08-05T08:42:43.268Z,5460
2017-08-05T08:43:42.959Z,6240
2017-08-05T08:44:43.603Z,7428
2017-08-05T08:45:43.610Z,7432
2017-08-05T08:46:43.798Z,7100
2017-08-05T08:47:43.615Z,6696
2017-08-05T08:48:43.618Z,6380
2017-08-05T08:49:43.313Z,6480
2017-08-05T08:50:43.298Z,5796
2017-08-05T08:51:43.610Z,6136
2017-08-05T08:52:42.967Z,6992
2017-08-05T08:53:43.297Z,7460
2017-08-05T08:54:43.621Z,7272
2017-08-05T08:55:43.300Z,6828
2017-08-05T08:56:43.620Z,8116
2017-08-05T08:57:43.649Z,10156
2017-08-05T08:58:43.637Z,12056
2017-08-05T08:59:43.628Z,14932
2017-08-05T09:00:43.688Z,15240
2017-08-05T09:01:43.036Z,14260
2017-08-05T09:02:43.315Z,14732
2017-08-05T09:03:43.665Z,14496
2017-08-05T09:04:43.335Z,14404
2017-08-05T09:05:43.663Z,15116
2017-08-05T09:06:43.336Z,15360
2017-08-05T09:07:43.676Z,15848
2017-08-05T09:08:43.323Z,16232
2017-08-05T09:09:43.326Z,16800
2017-08-05T09:10:43.028Z,16768
2017-08-05T09:11:43.670Z,15896
2017-08-05T09:12:43.345Z,15364
2017-08-05T09:13:43.672Z,15520
2017-08-05T09:14:43.040Z,15732
2017-08-05T09:15:43.017Z,15544
2017-08-05T09:16:43.352Z,14788
2017-08-05T09:17:43.562Z,14048
2017-08-05T09:18:43.044Z,13776
2017-08-05T09:19:43.052Z,11992
2017-08-05T09:20:43.672Z,11832
2017-08-05T09:21:43.702Z,12492
2017-08-05T09:22:43.033Z,13292
2017-08-05T09:23:43.368Z,15696
2017-08-05T09:24:43.089Z,17440
2017-08-05T09:25:43.389Z,17632
2017-08-05T09:26:43.219Z,18272
2017-08-05T09:27:45.004Z,18016
2017-08-05T09:28:43.480Z,17408
2017-08-05T09:29:43.735Z,16480
2017-08-05T09:30:43.558Z,15388
2017-08-05T09:31:43.730Z,14600
2017-08-05T09:32:43.062Z,13472
2017-08-05T09:33:43.068Z,12208
2017-08-05T09:34:43.393Z,12576
2017-08-05T09:35:43.530Z,11832
2017-08-05T09:36:43.474Z,12648
2017-08-05T09:37:43.418Z,10796
2017-08-05T09:38:43.418Z,8960
2017-08-05T09:39:43.418Z,9208
2017-08-05T09:40:43.417Z,8924
2017-08-05T09:41:43.413Z,7140
2017-08-05T09:42:43.117Z,7220
2017-08-05T09:43:43.132Z,8936
2017-08-05T09:44:43.460Z,9264
2017-08-05T09:45:43.139Z,10180
2017-08-05T09:46:43.750Z,10572
2017-08-05T09:47:43.753Z,11044
2017-08-05T09:48:43.449Z,11048
2017-08-05T09:49:43.762Z,10648
2017-08-05T09:50:43.145Z,11564
2017-08-05T09:51:43.799Z,12328
2017-08-05T09:52:43.475Z,12728
2017-08-05T09:53:43.139Z,11584
2017-08-05T09:54:43.444Z,12116
2017-08-05T09:55:43.485Z,10524
2017-08-05T09:56:43.483Z,9648
2017-08-05T09:57:43.453Z,8640
2017-08-05T09:58:43.782Z,8812
2017-08-05T09:59:43.788Z,9184
2017-08-05T10:00:43.178Z,9760
2017-08-05T10:01:43.793Z,11384
2017-08-05T10:02:43.806Z,11388
2017-08-05T10:03:43.480Z,11380
2017-08-05T10:04:43.185Z,12360
2017-08-05T10:05:43.802Z,14448
2017-08-05T10:06:43.510Z,14960
2017-08-05T10:07:43.810Z,14108
2017-08-05T10:08:43.498Z,13792
2017-08-05T10:09:43.191Z,13340
2017-08-05T10:10:43.869Z,12008
2017-08-05T10:11:43.831Z,10580
2017-08-05T10:12:43.821Z,10048
2017-08-05T10:13:43.523Z,10684
2017-08-05T10:14:43.217Z,12072
2017-08-05T10:15:43.528Z,10948
2017-08-05T10:16:43.542Z,9004
2017-08-05T10:17:43.525Z,8484
2017-08-05T10:18:43.539Z,9380
2017-08-05T10:19:43.846Z,8988
2017-08-05T10:20:43.534Z,8912
2017-08-05T10:21:43.861Z,9456
2017-08-05T10:22:43.882Z,10876
2017-08-05T10:23:43.870Z,12760
2017-08-05T10:24:43.859Z,12244
2017-08-05T10:25:43.871Z,10552
2017-08-05T10:26:43.562Z,8444
2017-08-05T10:27:43.868Z,6296
2017-08-05T10:28:43.871Z,5096
2017-08-05T10:29:43.879Z,4644
2017-08-05T10:30:43.876Z,5904
2017-08-05T10:31:43.565Z,8312
2017-08-05T10:32:43.910Z,10044
2017-08-05T10:33:43.891Z,11344
2017-08-05T10:34:43.589Z,11256
2017-08-05T10:35:43.576Z,9784
2017-08-05T10:36:43.598Z,7736
2017-08-05T10:37:43.580Z,6140
2017-08-05T10:38:43.260Z,5816
2017-08-05T10:39:43.928Z,6984
2017-08-05T10:40:43.912Z,7816
2017-08-05T10:41:43.281Z,7532
2017-08-05T10:42:43.619Z,6572
2017-08-05T10:43:43.923Z,5148
2017-08-05T10:44:43.924Z,4292
2017-08-05T10:45:43.616Z,5224
2017-08-05T10:46:43.607Z,7552
2017-08-05T10:47:43.933Z,9504
2017-08-05T10:48:43.957Z,9288
2017-08-05T10:49:43.323Z,9272
2017-08-05T10:50:42.980Z,10160
2017-08-05T10:51:43.953Z,10164
2017-08-05T10:52:43.948Z,10460
2017-08-05T10:53:43.969Z,9288
2017-08-05T10:54:43.311Z,8188
2017-08-05T10:55:43.957Z,5916
2017-08-05T10:56:43.978Z,4564
2017-08-05T10:57:43.665Z,3896
2017-08-05T10:58:43.325Z,2792
2017-08-05T10:59:43.975Z,2680
2017-08-05T11:00:44.001Z,2328
2017-08-05T11:01:43.974Z,2504
2017-08-05T11:02:43.342Z,2808
2017-08-05T11:03:43.664Z,3368
2017-08-05T11:04:43.985Z,4872
2017-08-05T11:05:43.348Z,5956
2017-08-05T11:06:43.996Z,5524
2017-08-05T11:07:44.005Z,4112
2017-08-05T11:08:43.692Z,3276
2017-08-05T11:09:44.029Z,2884
2017-08-05T11:10:43.676Z,2724
2017-08-05T11:11:43.370Z,2656
2017-08-05T11:12:44.037Z,2620
2017-08-05T11:13:44.031Z,2588
2017-08-05T11:14:44.023Z,2576
2017-08-05T11:15:43.699Z,2584
2017-08-05T11:16:43.720Z,2576
2017-08-05T11:17:43.698Z,2564
2017-08-05T11:18:43.406Z,2560
2017-08-05T11:19:44.027Z,2560
2017-08-05T11:20:43.713Z,2560
2017-08-05T11:21:44.044Z,2564
2017-08-05T11:22:43.387Z,2564
2017-08-05T11:23:43.725Z,2568
2017-08-05T11:24:43.715Z,2576
2017-08-05T11:25:44.038Z,2588
2017-08-05T11:26:43.096Z,2600
2017-08-05T11:27:43.762Z,2600
2017-08-05T11:28:44.057Z,2592
2017-08-05T11:29:44.071Z,2600
2017-08-05T11:30:43.729Z,2604
2017-08-05T11:31:43.414Z,2612
2017-08-05T11:32:43.738Z,2628
2017-08-05T11:33:43.415Z,2660
2017-08-05T11:34:43.765Z,2664
2017-08-05T11:35:44.324Z,2672
2017-08-05T11:36:43.895Z,2688
2017-08-05T11:37:44.069Z,2416
2017-08-05T11:38:44.090Z,2428
2017-08-05T11:39:43.752Z,2580
2017-08-05T11:40:43.452Z,2624
2017-08-05T11:41:43.782Z,2596
2017-08-05T11:42:43.761Z,2496
2017-08-05T11:43:43.466Z,2512
2017-08-05T11:44:43.768Z,2648
2017-08-05T11:45:44.466Z,3112
2017-08-05T11:46:44.096Z,4268
2017-08-05T11:47:43.775Z,3720
2017-08-05T11:48:43.776Z,3480
2017-08-05T11:49:44.111Z,3640
2017-08-05T11:50:43.794Z,2872
2017-08-05T11:51:43.497Z,3236
2017-08-05T11:52:44.119Z,3644
2017-08-05T11:53:43.790Z,4384
2017-08-05T11:54:43.813Z,4536
2017-08-05T11:55:44.132Z,4988
2017-08-05T11:56:43.488Z,5836
2017-08-05T11:57:43.801Z,6692
2017-08-05T11:58:43.811Z,7888
2017-08-05T11:59:44.150Z,7932
2017-08-05T12:00:43.813Z,9516
2017-08-05T12:01:43.807Z,9940
2017-08-05T12:02:43.816Z,11124
2017-08-05T12:03:43.502Z,12244
2017-08-05T12:04:43.842Z,11700
2017-08-05T12:05:43.519Z,10764
2017-08-05T12:06:43.833Z,11316
2017-08-05T12:07:43.825Z,12244
2017-08-05T12:08:43.507Z,12936
2017-08-05T12:09:43.835Z,12188
2017-08-05T12:10:43.849Z,12140
2017-08-05T12:11:44.203Z,13116
2017-08-05T12:12:44.175Z,12868
2017-08-05T12:13:44.201Z,12816
2017-08-05T12:14:43.842Z,13752
2017-08-05T12:15:44.227Z,13924
2017-08-05T12:16:43.854Z,14892
2017-08-05T12:17:43.537Z,14744
2017-08-05T12:18:43.537Z,12532
2017-08-05T12:19:43.877Z,9088
2017-08-05T12:20:44.188Z,7104
2017-08-05T12:21:43.888Z,6760
2017-08-05T12:22:43.882Z,6000
2017-08-05T12:23:43.938Z,5540
2017-08-05T12:24:43.906Z,4788
2017-08-05T12:25:43.915Z,4048
2017-08-05T12:26:44.209Z,3708
2017-08-05T12:27:43.891Z,3308
2017-08-05T12:28:44.241Z,2960
2017-08-05T12:29:43.580Z,3184
2017-08-05T12:30:44.225Z,2828
2017-08-05T12:31:43.598Z,2832
2017-08-05T12:32:43.915Z,2820
2017-08-05T12:33:43.911Z,2836
2017-08-05T12:34:43.921Z,2828
2017-08-05T12:35:43.937Z,2820
2017-08-05T12:36:44.283Z,2784
2017-08-05T12:37:43.928Z,2812
2017-08-05T12:38:43.933Z,2804
2017-08-05T12:39:43.634Z,2840
2017-08-05T12:40:44.285Z,2920
2017-08-05T12:41:43.951Z,3000
2017-08-05T12:42:44.286Z,3112
2017-08-05T12:43:43.630Z,2840
2017-08-05T12:44:43.989Z,2780
2017-08-05T12:45:43.975Z,3168
2017-08-05T12:46:43.959Z,4116
2017-08-05T12:47:44.308Z,4972
2017-08-05T12:48:44.037Z,4536
2017-08-05T12:49:43.994Z,3712
2017-08-05T12:50:43.980Z,3188
2017-08-05T12:51:44.303Z,3704
2017-08-05T12:52:43.669Z,4836
2017-08-05T12:53:44.315Z,4212
2017-08-05T12:54:44.040Z,3640
2017-08-05T12:55:44.001Z,5444
2017-08-05T12:56:44.321Z,5680
2017-08-05T12:57:44.335Z,7488
2017-08-05T12:58:44.012Z,6936
2017-08-05T12:59:44.330Z,5808
2017-08-05T13:00:44.347Z,5356
2017-08-05T13:01:43.715Z,5068
2017-08-05T13:02:43.749Z,4504
2017-08-05T13:03:44.362Z,4036
2017-08-05T13:04:43.477Z,4168
2017-08-05T13:05:44.379Z,4304
2017-08-05T13:06:43.715Z,4476
2017-08-05T13:07:44.372Z,5000
2017-08-05T13:08:44.381Z,5288
2017-08-05T13:09:44.077Z,5376
2017-08-05T13:10:43.734Z,5196
2017-08-05T13:11:44.391Z,3712
2017-08-05T13:12:44.084Z,2832
2017-08-05T13:13:44.076Z,2672
2017-08-05T13:14:43.757Z,2704
2017-08-05T13:15:44.437Z,2888
2017-08-05T13:16:44.443Z,3384
2017-08-05T13:17:44.076Z,5324
2017-08-05T13:18:44.077Z,4892
2017-08-05T13:19:44.404Z,3532
2017-08-05T13:20:44.427Z,3032
2017-08-05T13:21:43.769Z,2828
2017-08-05T13:22:44.414Z,2764
2017-08-05T13:23:44.096Z,3640
2017-08-05T13:24:44.432Z,4768
2017-08-05T13:25:44.432Z,4296
2017-08-05T13:26:44.438Z,4132
2017-08-05T13:27:44.444Z,4492
2017-08-05T13:28:44.433Z,6680
2017-08-05T13:29:44.141Z,9348
2017-08-05T13:30:43.839Z,9848
2017-08-05T13:31:44.152Z,9860
2017-08-05T13:32:44.445Z,9548
2017-08-05T13:33:43.829Z,8756
2017-08-05T13:34:44.454Z,9952
2017-08-05T13:35:44.471Z,10564